Time;durP1;ratioP1;P1;durP2;ratioP2;P2;SDS_P1;SDS_P2;PMS_P1;PMS_P2;Temp;Humidity;BMP_temperature;BMP_pressure;BME280_temperature;BME280_humidity;BME280_pressure;Samples;Min_cycle;Max_cycle;Signal;HPM_P1;HPM_P2
2021/08/13 00:01:47;;;;;;;8.40;4.78;;;22.30;99.90;;;;;;5018190;28;20088;-83
2021/08/13 00:04:14;;;;;;;6.70;4.45;;;22.30;99.90;;;;;;5018184;28;20038;-84
2021/08/13 00:06:43;;;;;;;15.05;5.07;;;22.20;99.90;;;;;;5032807;28;20022;-84
2021/08/13 00:09:09;;;;;;;8.88;5.20;;;22.10;99.90;;;;;;5036199;28;20029;-84
2021/08/13 00:11:39;;;;;;;9.77;4.88;;;22.10;99.90;;;;;;5016454;28;20034;-84
2021/08/13 00:14:06;;;;;;;8.68;5.07;;;22.10;99.90;;;;;;5017962;28;20103;-83
2021/08/13 00:16:32;;;;;;;9.30;4.78;;;22.00;99.90;;;;;;5016493;28;20026;-84
2021/08/13 00:18:59;;;;;;;8.77;4.93;;;22.00;99.90;;;;;;5015961;28;20399;-84
2021/08/13 00:21:24;;;;;;;8.55;5.10;;;21.90;99.90;;;;;;5022442;28;20034;-84
2021/08/13 00:23:51;;;;;;;8.52;4.75;;;21.80;99.90;;;;;;5029382;28;20030;-83
2021/08/13 00:26:16;;;;;;;9.45;5.38;;;21.80;99.90;;;;;;5016196;28;20025;-84
2021/08/13 00:28:42;;;;;;;8.27;5.00;;;21.80;99.90;;;;;;5017754;28;20139;-84
2021/08/13 00:31:07;;;;;;;8.95;5.00;;;21.80;99.90;;;;;;5025343;28;20037;-84
2021/08/13 00:33:33;;;;;;;9.68;5.63;;;21.70;99.90;;;;;;5017022;28;20030;-83
2021/08/13 00:35:59;;;;;;;9.98;5.43;;;21.70;99.90;;;;;;5026433;28;20048;-83
2021/08/13 00:38:24;;;;;;;8.75;5.65;;;21.70;99.90;;;;;;5035935;28;20028;-83
2021/08/13 00:40:50;;;;;;;10.50;5.68;;;21.70;99.90;;;;;;5022313;28;20026;-84
2021/08/13 00:43:15;;;;;;;9.43;5.40;;;21.60;99.90;;;;;;5017004;28;20025;-84
2021/08/13 00:45:41;;;;;;;9.13;5.45;;;21.60;99.90;;;;;;5017085;28;20029;-84
2021/08/13 00:48:07;;;;;;;11.18;5.78;;;21.60;99.90;;;;;;5015455;28;20116;-82
2021/08/13 00:50:33;;;;;;;9.27;5.03;;;21.60;99.90;;;;;;5016658;28;20026;-84
2021/08/13 00:53:01;;;;;;;8.73;5.70;;;21.60;99.90;;;;;;5016409;28;20029;-82
2021/08/13 00:55:27;;;;;;;8.27;5.18;;;21.60;99.90;;;;;;5016692;28;20166;-84
2021/08/13 00:57:53;;;;;;;11.98;5.57;;;21.50;99.90;;;;;;5016359;28;20085;-82
2021/08/13 01:00:19;;;;;;;10.85;5.57;;;21.60;99.90;;;;;;5015587;28;20049;-83
2021/08/13 01:02:45;;;;;;;9.48;5.60;;;21.50;99.90;;;;;;5015123;28;20029;-82
2021/08/13 01:05:10;;;;;;;8.57;5.18;;;21.40;99.90;;;;;;5019497;28;20523;-83
2021/08/13 01:07:36;;;;;;;8.57;5.05;;;21.50;99.90;;;;;;5030844;28;20088;-82
2021/08/13 01:10:04;;;;;;;13.38;5.50;;;21.40;99.90;;;;;;5016106;28;20036;-83
2021/08/13 01:12:51;;;;;;;9.57;5.35;;;21.40;99.90;;;;;;5023573;28;20022;-83
2021/08/13 01:15:18;;;;;;;9.32;5.63;;;21.30;99.90;;;;;;5031456;28;20088;-83
2021/08/13 01:18:05;;;;;;;8.88;5.40;;;21.30;99.90;;;;;;5020126;28;20037;-83
2021/08/13 01:20:49;;;;;;;7.78;5.13;;;21.20;99.90;;;;;;5034574;28;20038;-82
2021/08/13 01:23:52;;;;;;;11.40;5.68;;;21.20;99.90;;;;;;5021859;28;20065;-83
2021/08/13 01:26:20;;;;;;;8.88;5.43;;;21.10;99.90;;;;;;5015893;28;20025;-83
2021/08/13 01:29:10;;;;;;;10.88;5.45;;;21.10;99.90;;;;;;5015086;28;20036;-83
2021/08/13 01:31:48;;;;;;;9.33;5.77;;;21.00;99.90;;;;;;5015643;28;20129;-83
2021/08/13 01:34:18;;;;;;;9.27;5.55;;;21.00;99.90;;;;;;5017883;28;20267;-83
2021/08/13 01:36:47;;;;;;;13.50;6.22;;;21.00;99.90;;;;;;5033810;28;20021;-82
2021/08/13 01:39:13;;;;;;;9.07;6.10;;;21.00;99.90;;;;;;5032273;28;20033;-83
2021/08/13 01:41:41;;;;;;;9.40;5.63;;;21.00;99.90;;;;;;5017610;28;20025;-83
2021/08/13 01:44:09;;;;;;;8.30;5.43;;;21.00;99.90;;;;;;5017688;28;20026;-83
2021/08/13 01:46:36;;;;;;;11.50;6.38;;;20.90;99.90;;;;;;5025702;28;20093;-82
2021/08/13 01:49:03;;;;;;;9.55;5.85;;;20.80;99.90;;;;;;5032966;28;20029;-82
2021/08/13 01:51:30;;;;;;;7.75;5.28;;;20.80;99.90;;;;;;5017746;28;20022;-83
2021/08/13 01:53:56;;;;;;;9.18;5.38;;;20.80;99.90;;;;;;5035869;28;20029;-83
2021/08/13 01:56:22;;;;;;;9.93;5.65;;;20.80;99.90;;;;;;5036573;28;20025;-83
2021/08/13 01:58:48;;;;;;;10.30;5.65;;;20.80;99.90;;;;;;5031569;28;20121;-83
2021/08/13 02:01:15;;;;;;;12.23;5.00;;;20.80;99.90;;;;;;5022199;28;20044;-82
2021/08/13 02:03:42;;;;;;;8.55;5.50;;;20.70;99.90;;;;;;5032178;28;20045;-82
2021/08/13 02:06:08;;;;;;;8.82;5.25;;;20.70;99.90;;;;;;5027677;28;20029;-83
2021/08/13 02:08:36;;;;;;;9.73;5.43;;;20.70;99.90;;;;;;5020116;28;20386;-82
2021/08/13 02:11:02;;;;;;;9.48;5.40;;;20.70;99.90;;;;;;5020308;28;20030;-83
2021/08/13 02:13:28;;;;;;;10.35;5.40;;;20.80;99.90;;;;;;5032940;28;20025;-83
2021/08/13 02:16:00;;;;;;;9.10;5.05;;;20.80;99.90;;;;;;5039339;28;20053;-82
2021/08/13 02:18:29;;;;;;;8.85;5.35;;;20.80;99.90;;;;;;5033717;28;20042;-83
2021/08/13 02:21:00;;;;;;;8.15;4.57;;;20.90;99.90;;;;;;5027056;28;20030;-82
2021/08/13 02:23:25;;;;;;;13.18;5.55;;;20.90;99.90;;;;;;5037135;28;20077;-81
2021/08/13 02:25:51;;;;;;;9.30;5.75;;;21.00;99.90;;;;;;5021049;28;20513;-82
2021/08/13 02:28:17;;;;;;;9.60;5.38;;;20.90;99.90;;;;;;5024297;28;20033;-82
2021/08/13 02:33:08;;;;;;;8.63;5.15;;;20.90;99.90;;;;;;5065541;23;20136;-79
2021/08/13 02:35:34;;;;;;;12.23;6.07;;;20.90;99.90;;;;;;5058757;28;20021;-80
2021/08/13 02:38:15;;;;;;;10.20;5.32;;;21.00;99.90;;;;;;5046631;28;20022;-79
2021/08/13 02:40:55;;;;;;;10.70;5.53;;;20.90;99.90;;;;;;5055066;28;20041;-79
2021/08/13 02:43:48;;;;;;;8.43;5.40;;;20.90;99.90;;;;;;5018478;28;20060;-79
2021/08/13 02:46:16;;;;;;;9.93;4.70;;;20.90;99.90;;;;;;5028352;28;20028;-79
2021/08/13 02:48:42;;;;;;;8.52;5.45;;;20.80;99.90;;;;;;5028283;28;20111;-79
2021/08/13 02:51:14;;;;;;;9.98;5.90;;;20.80;99.90;;;;;;5029489;28;20032;-80
2021/08/13 02:53:44;;;;;;;10.65;5.25;;;20.80;99.90;;;;;;5012922;28;20030;-79
2021/08/13 02:56:17;;;;;;;9.38;5.40;;;20.80;99.90;;;;;;4994866;28;20032;-79
2021/08/13 02:58:48;;;;;;;9.27;5.55;;;20.80;99.90;;;;;;5015845;28;20434;-80
2021/08/13 03:01:23;;;;;;;7.60;5.03;;;20.80;99.90;;;;;;5032746;28;20560;-79
2021/08/13 03:03:51;;;;;;;12.68;5.63;;;20.80;99.90;;;;;;5026063;28;20045;-80
2021/08/13 03:06:20;;;;;;;10.75;6.13;;;20.80;99.90;;;;;;5040907;28;20038;-79
2021/08/13 03:08:47;;;;;;;11.02;5.85;;;20.70;99.90;;;;;;5030942;28;20036;-80
2021/08/13 03:11:15;;;;;;;11.48;5.60;;;20.60;99.90;;;;;;5026493;28;20030;-80
2021/08/13 03:13:43;;;;;;;10.77;6.15;;;20.50;99.90;;;;;;5028939;28;20021;-79
2021/08/13 03:16:11;;;;;;;8.45;5.57;;;20.50;99.90;;;;;;5006549;28;20037;-79
2021/08/13 03:18:39;;;;;;;8.90;5.53;;;20.50;99.90;;;;;;5016763;28;20072;-80
2021/08/13 03:21:05;;;;;;;8.68;5.90;;;20.60;99.90;;;;;;5014715;28;20030;-79
2021/08/13 03:23:30;;;;;;;9.55;5.55;;;20.60;99.90;;;;;;5037776;28;20105;-79
2021/08/13 03:25:57;;;;;;;8.15;5.65;;;20.60;99.90;;;;;;5033456;28;20044;-79
2021/08/13 03:28:23;;;;;;;8.68;5.30;;;20.50;99.90;;;;;;5041377;28;20018;-80
2021/08/13 03:30:49;;;;;;;9.43;5.43;;;20.40;99.90;;;;;;5030017;28;20048;-79
2021/08/13 03:33:16;;;;;;;12.00;6.22;;;20.40;99.90;;;;;;5044578;28;20033;-79
2021/08/13 03:35:43;;;;;;;11.27;6.88;;;20.50;99.90;;;;;;5033664;28;20033;-79
2021/08/13 03:38:10;;;;;;;8.73;5.40;;;20.50;99.90;;;;;;5025311;28;20014;-79
2021/08/13 03:40:36;;;;;;;8.82;5.00;;;20.50;99.90;;;;;;5017294;28;20030;-80
2021/08/13 03:43:02;;;;;;;14.85;6.25;;;20.50;99.90;;;;;;5012731;28;20021;-80
2021/08/13 03:45:28;;;;;;;9.10;6.35;;;20.50;99.90;;;;;;5014750;28;20060;-80
2021/08/13 03:47:54;;;;;;;9.95;5.68;;;20.40;99.90;;;;;;5007206;28;20375;-79
2021/08/13 03:50:20;;;;;;;8.73;5.50;;;20.50;99.90;;;;;;5041631;28;20037;-80
2021/08/13 03:52:45;;;;;;;12.35;5.88;;;20.50;99.90;;;;;;5026672;28;20042;-79
2021/08/13 03:55:13;;;;;;;8.68;5.50;;;20.50;99.90;;;;;;5024415;28;20026;-81
2021/08/13 03:57:40;;;;;;;9.63;6.20;;;20.50;99.90;;;;;;5016352;28;20142;-80
2021/08/13 04:00:06;;;;;;;12.43;6.88;;;20.50;99.90;;;;;;5025010;28;20053;-80
2021/08/13 04:02:32;;;;;;;11.30;6.07;;;20.50;99.90;;;;;;5042903;28;20030;-81
2021/08/13 04:04:58;;;;;;;12.25;5.65;;;20.50;99.90;;;;;;5025484;28;20051;-81
2021/08/13 04:07:24;;;;;;;12.35;6.03;;;20.40;99.90;;;;;;5033495;28;20026;-80
2021/08/13 04:09:49;;;;;;;9.73;5.90;;;20.50;99.90;;;;;;5028598;28;20052;-80
2021/08/13 04:12:15;;;;;;;9.60;5.75;;;20.50;99.90;;;;;;5044144;28;20038;-81
2021/08/13 04:14:41;;;;;;;9.18;5.68;;;20.40;99.90;;;;;;5022689;28;20053;-80
2021/08/13 04:17:07;;;;;;;10.65;6.10;;;20.50;99.90;;;;;;5007054;28;20033;-81
2021/08/13 04:19:33;;;;;;;9.05;5.50;;;20.50;99.90;;;;;;5013258;28;20045;-81
2021/08/13 04:21:58;;;;;;;9.20;5.63;;;20.60;99.90;;;;;;5026257;28;20084;-80
2021/08/13 04:24:24;;;;;;;9.98;5.85;;;20.60;99.90;;;;;;5021851;28;20036;-81
2021/08/13 04:26:52;;;;;;;10.95;6.10;;;20.60;99.90;;;;;;5041500;28;20563;-80
2021/08/13 04:29:19;;;;;;;10.32;6.05;;;20.60;99.90;;;;;;5013071;28;20030;-81
2021/08/13 04:31:44;;;;;;;8.95;5.95;;;20.60;99.90;;;;;;5025537;28;20037;-81
2021/08/13 04:34:10;;;;;;;8.75;5.45;;;20.70;99.90;;;;;;5008575;28;20094;-81
2021/08/13 04:36:36;;;;;;;9.00;5.43;;;20.70;99.90;;;;;;5020323;28;20022;-81
2021/08/13 04:39:01;;;;;;;12.98;6.35;;;20.70;99.90;;;;;;5029634;28;20033;-81
2021/08/13 04:41:27;;;;;;;11.10;5.93;;;20.70;99.90;;;;;;5024375;28;20017;-80
2021/08/13 04:43:54;;;;;;;11.15;6.10;;;20.70;99.90;;;;;;5021938;28;20662;-81
2021/08/13 04:46:20;;;;;;;9.07;5.78;;;20.60;99.90;;;;;;5028232;28;20036;-81
2021/08/13 04:48:45;;;;;;;8.35;5.50;;;20.60;99.90;;;;;;5026828;28;20053;-81
2021/08/13 04:51:11;;;;;;;9.88;5.90;;;20.50;99.90;;;;;;5034941;28;20032;-80
2021/08/13 04:53:37;;;;;;;10.38;5.75;;;20.50;99.90;;;;;;5018526;28;20033;-80
2021/08/13 04:56:03;;;;;;;10.80;5.97;;;20.60;99.90;;;;;;5043117;28;20026;-80
2021/08/13 04:58:28;;;;;;;9.98;5.88;;;20.50;99.90;;;;;;5024114;28;20025;-81
2021/08/13 05:00:56;;;;;;;8.18;5.60;;;20.50;99.90;;;;;;5022401;28;20426;-80
2021/08/13 05:03:21;;;;;;;13.15;6.57;;;20.50;99.90;;;;;;5032355;28;20014;-80
2021/08/13 05:05:48;;;;;;;9.85;6.32;;;20.50;99.90;;;;;;5043324;28;20036;-81
2021/08/13 05:08:14;;;;;;;13.13;6.22;;;20.50;99.90;;;;;;5044399;28;20026;-81
2021/08/13 05:10:43;;;;;;;9.10;5.75;;;20.40;99.90;;;;;;5024621;28;20034;-80
2021/08/13 05:13:09;;;;;;;11.07;6.22;;;20.50;99.90;;;;;;5044295;28;20017;-80
2021/08/13 05:15:35;;;;;;;9.80;5.90;;;20.50;99.90;;;;;;5023980;28;20021;-81
2021/08/13 05:18:04;;;;;;;13.02;6.05;;;20.50;99.90;;;;;;5037545;28;20093;-81
2021/08/13 05:20:30;;;;;;;9.20;5.75;;;20.50;99.90;;;;;;5023108;28;20056;-81
2021/08/13 05:22:55;;;;;;;9.63;6.53;;;20.50;99.90;;;;;;5023833;28;20030;-81
2021/08/13 05:25:23;;;;;;;8.93;5.57;;;20.50;99.90;;;;;;5038147;28;20044;-81
2021/08/13 05:27:48;;;;;;;9.13;5.72;;;20.50;99.90;;;;;;5015974;28;20029;-81
2021/08/13 05:30:15;;;;;;;11.10;5.95;;;20.60;99.90;;;;;;5010693;28;20028;-81
2021/08/13 05:32:42;;;;;;;9.13;6.30;;;20.60;99.90;;;;;;5029275;28;20473;-82
2021/08/13 05:35:09;;;;;;;11.00;5.78;;;20.70;99.90;;;;;;5033638;28;20021;-81
2021/08/13 05:37:35;;;;;;;8.85;6.00;;;20.80;99.90;;;;;;5022178;28;20084;-81
2021/08/13 05:40:03;;;;;;;10.30;6.45;;;20.80;99.90;;;;;;5033939;28;20030;-80
2021/08/13 05:42:29;;;;;;;11.25;6.80;;;21.00;99.90;;;;;;5024462;28;20040;-81
2021/08/13 05:44:55;;;;;;;12.57;6.32;;;21.10;99.90;;;;;;5021750;28;20037;-81
2021/08/13 05:47:21;;;;;;;9.98;6.40;;;21.20;99.90;;;;;;5037452;28;20029;-81
2021/08/13 05:49:46;;;;;;;10.27;6.38;;;21.30;99.90;;;;;;5029110;28;20053;-81
2021/08/13 05:52:12;;;;;;;8.52;5.60;;;21.40;99.90;;;;;;5036923;28;20049;-81
2021/08/13 05:54:38;;;;;;;9.57;5.80;;;21.50;99.90;;;;;;5038270;28;20025;-81
2021/08/13 05:57:04;;;;;;;9.02;5.70;;;21.50;99.90;;;;;;5018841;28;20048;-81
2021/08/13 05:59:29;;;;;;;10.70;6.30;;;21.60;99.90;;;;;;5020061;28;20022;-81
2021/08/13 06:01:55;;;;;;;10.52;5.60;;;21.70;99.90;;;;;;5033750;28;20179;-81
2021/08/13 06:04:21;;;;;;;12.35;5.90;;;21.80;99.90;;;;;;5021888;28;20021;-81
2021/08/13 06:06:47;;;;;;;10.45;6.03;;;22.00;99.90;;;;;;5033777;28;20044;-81
2021/08/13 06:09:15;;;;;;;11.73;7.00;;;21.90;99.90;;;;;;5040021;28;20029;-81
2021/08/13 06:11:41;;;;;;;13.32;6.82;;;21.90;99.90;;;;;;5019552;28;20018;-80
2021/08/13 06:14:07;;;;;;;8.75;6.40;;;22.00;99.90;;;;;;5033511;28;20036;-80
2021/08/13 06:16:33;;;;;;;9.32;6.15;;;22.10;99.90;;;;;;5035699;28;20025;-80
2021/08/13 06:19:01;;;;;;;9.40;5.97;;;22.10;99.90;;;;;;5015464;28;20034;-79
2021/08/13 06:21:30;;;;;;;11.55;6.20;;;22.10;99.90;;;;;;5024466;28;20025;-79
2021/08/13 06:23:58;;;;;;;12.32;7.15;;;22.10;99.90;;;;;;5036916;28;20022;-80
2021/08/13 06:26:24;;;;;;;10.50;6.55;;;22.10;99.90;;;;;;5021822;28;20088;-80
2021/08/13 06:28:52;;;;;;;13.00;6.75;;;22.30;99.90;;;;;;5023390;28;20065;-80
2021/08/13 06:31:18;;;;;;;11.95;6.22;;;22.50;99.90;;;;;;5038932;28;20049;-80
2021/08/13 06:33:44;;;;;;;12.60;6.25;;;22.50;99.90;;;;;;5032373;28;20032;-80
2021/08/13 06:36:10;;;;;;;9.48;6.20;;;22.50;99.90;;;;;;5029665;28;20154;-80
2021/08/13 06:38:36;;;;;;;11.02;5.68;;;22.70;99.90;;;;;;5022154;28;20109;-80
2021/08/13 06:41:01;;;;;;;10.45;5.63;;;22.90;99.90;;;;;;5026701;28;20049;-81
2021/08/13 06:43:28;;;;;;;8.95;5.53;;;23.10;99.90;;;;;;5023201;28;20029;-80
2021/08/13 06:45:54;;;;;;;9.52;5.97;;;23.20;99.90;;;;;;5031971;28;20029;-80
2021/08/13 06:48:21;;;;;;;11.93;6.40;;;23.30;99.90;;;;;;5038128;28;20060;-80
2021/08/13 06:50:46;;;;;;;9.13;5.60;;;23.50;99.90;;;;;;5033524;28;20238;-80
2021/08/13 06:53:12;;;;;;;10.30;5.85;;;23.50;99.90;;;;;;5039319;28;20020;-80
2021/08/13 06:55:37;;;;;;;8.93;5.88;;;23.50;99.90;;;;;;5034645;28;20029;-81
2021/08/13 06:58:04;;;;;;;10.55;5.82;;;23.60;99.90;;;;;;5013763;28;20022;-80
2021/08/13 07:00:30;;;;;;;10.40;5.72;;;23.60;99.90;;;;;;5013470;28;20033;-81
2021/08/13 07:02:55;;;;;;;9.50;5.40;;;23.70;99.90;;;;;;5011834;28;20034;-80
2021/08/13 07:05:21;;;;;;;10.75;6.45;;;23.80;99.90;;;;;;5024873;28;20120;-80
2021/08/13 07:07:47;;;;;;;8.68;5.18;;;23.90;99.90;;;;;;5029869;28;20018;-80
2021/08/13 07:10:13;;;;;;;7.70;4.82;;;23.90;99.90;;;;;;5016480;28;20491;-80
2021/08/13 07:12:39;;;;;;;7.95;4.85;;;24.10;99.90;;;;;;5016766;28;20118;-81
2021/08/13 07:15:07;;;;;;;7.55;5.05;;;24.30;99.90;;;;;;5032210;28;20069;-81
2021/08/13 07:17:35;;;;;;;11.18;5.25;;;24.20;99.90;;;;;;5031214;28;20094;-83
2021/08/13 07:20:01;;;;;;;7.88;4.93;;;24.20;99.90;;;;;;5010041;28;20076;-81
2021/08/13 07:22:27;;;;;;;8.63;5.25;;;24.30;99.90;;;;;;5029038;28;20030;-83
2021/08/13 07:24:52;;;;;;;11.40;4.65;;;24.40;99.90;;;;;;5005751;28;20040;-82
2021/08/13 07:27:18;;;;;;;10.18;5.57;;;24.40;99.90;;;;;;5001325;28;20037;-82
2021/08/13 07:29:44;;;;;;;8.65;5.00;;;24.50;99.90;;;;;;5002597;28;20029;-82
2021/08/13 07:32:10;;;;;;;9.80;5.03;;;24.60;99.90;;;;;;5029237;28;20523;-82
2021/08/13 07:34:35;;;;;;;8.48;4.03;;;24.70;99.90;;;;;;5026440;28;20915;-81
2021/08/13 07:37:01;;;;;;;7.80;3.28;;;24.80;99.90;;;;;;5027704;28;20037;-83
2021/08/13 07:39:26;;;;;;;8.50;4.00;;;24.80;99.90;;;;;;5027511;28;20033;-82
2021/08/13 07:41:52;;;;;;;7.45;4.22;;;25.00;99.90;;;;;;5010377;28;20094;-81
2021/08/13 07:44:18;;;;;;;6.72;3.40;;;25.20;99.90;;;;;;5028767;28;20049;-82
2021/08/13 07:46:43;;;;;;;9.55;3.45;;;25.30;99.90;;;;;;5028438;28;20052;-80
2021/08/13 07:49:12;;;;;;;7.35;3.33;;;25.40;99.90;;;;;;5026601;28;20068;-81
2021/08/13 07:51:40;;;;;;;6.65;3.30;;;25.50;99.90;;;;;;5011138;28;20029;-83
2021/08/13 07:54:07;;;;;;;8.38;3.28;;;25.60;99.90;;;;;;5005792;28;20029;-82
2021/08/13 07:56:32;;;;;;;7.72;3.38;;;25.70;99.90;;;;;;5008051;28;20022;-82
2021/08/13 07:58:58;;;;;;;7.28;3.25;;;25.90;99.90;;;;;;5027583;28;20025;-84
2021/08/13 08:01:24;;;;;;;9.20;3.00;;;25.90;99.90;;;;;;4994749;28;20532;-84
2021/08/13 08:03:49;;;;;;;6.25;3.15;;;25.90;99.90;;;;;;5023310;28;20025;-84
2021/08/13 08:06:15;;;;;;;7.03;3.10;;;26.00;99.90;;;;;;4996837;28;20034;-84
2021/08/13 08:08:41;;;;;;;6.72;3.30;;;26.10;99.90;;;;;;5026474;28;20413;-84
2021/08/13 08:11:07;;;;;;;6.38;2.95;;;26.20;99.90;;;;;;5010437;28;20046;-84
2021/08/13 08:13:32;;;;;;;7.38;3.15;;;26.20;99.90;;;;;;4994719;28;20026;-85
2021/08/13 08:15:58;;;;;;;9.02;3.17;;;26.40;99.90;;;;;;5017668;28;20440;-84
2021/08/13 08:18:23;;;;;;;5.93;2.75;;;26.40;99.90;;;;;;5027636;28;20025;-83
2021/08/13 08:20:50;;;;;;;6.13;3.28;;;26.50;99.90;;;;;;5023642;28;20041;-84
2021/08/13 08:23:16;;;;;;;7.25;3.33;;;26.70;99.90;;;;;;5006444;28;20108;-84
2021/08/13 08:25:43;;;;;;;7.70;2.83;;;26.80;99.90;;;;;;5007822;28;20588;-84
2021/08/13 08:28:08;;;;;;;6.53;2.90;;;27.10;99.90;;;;;;5022405;28;20021;-84
2021/08/13 08:30:34;;;;;;;6.97;2.75;;;27.40;99.90;;;;;;5021176;28;20044;-84
2021/08/13 08:33:00;;;;;;;7.40;2.60;;;27.30;99.30;;;;;;5004708;28;20033;-85
2021/08/13 08:35:25;;;;;;;7.30;2.67;;;27.40;99.30;;;;;;5008143;28;20021;-84
2021/08/13 08:37:57;;;;;;;9.75;2.97;;;27.40;99.00;;;;;;5004666;28;20100;-84
2021/08/13 08:40:31;;;;;;;5.82;2.78;;;27.60;98.60;;;;;;5018512;28;20096;-85
2021/08/13 08:42:59;;;;;;;9.55;2.85;;;27.80;98.20;;;;;;5003220;28;20112;-85
2021/08/13 08:45:27;;;;;;;5.90;2.72;;;27.90;97.60;;;;;;5005894;28;20040;-85
2021/08/13 08:48:02;;;;;;;5.72;2.22;;;27.90;97.70;;;;;;5005697;28;20065;-84
2021/08/13 08:50:30;;;;;;;7.30;3.17;;;27.80;97.30;;;;;;5021422;28;20037;-83
2021/08/13 08:53:03;;;;;;;9.50;2.75;;;27.80;97.60;;;;;;4987231;28;20113;-83
2021/08/13 08:55:31;;;;;;;5.10;2.67;;;27.90;97.80;;;;;;5024592;28;20631;-84
2021/08/13 08:57:58;;;;;;;7.15;2.78;;;27.80;97.50;;;;;;5014908;28;20037;-83
2021/08/13 09:00:24;;;;;;;8.57;3.10;;;28.00;97.50;;;;;;5013989;28;20033;-83
2021/08/13 09:02:51;;;;;;;7.20;2.70;;;27.90;97.10;;;;;;5005658;28;20120;-82
2021/08/13 09:05:17;;;;;;;8.88;3.17;;;27.90;97.50;;;;;;5009599;28;20033;-85
2021/08/13 09:07:43;;;;;;;5.47;2.80;;;28.10;97.10;;;;;;5012409;28;20465;-84
2021/08/13 09:10:11;;;;;;;9.45;3.22;;;28.40;96.80;;;;;;4990786;28;20030;-83
2021/08/13 09:12:38;;;;;;;6.60;3.08;;;28.10;97.50;;;;;;5036646;23;22491;-85
2021/08/13 09:15:06;;;;;;;6.72;3.40;;;28.40;97.50;;;;;;5082364;28;20040;-84
2021/08/13 09:17:33;;;;;;;9.25;3.67;;;28.40;97.70;;;;;;5096471;28;20020;-84
2021/08/13 09:19:59;;;;;;;8.13;2.97;;;28.20;97.90;;;;;;5100437;28;20032;-84
2021/08/13 09:22:25;;;;;;;6.68;2.92;;;28.20;97.90;;;;;;5094451;28;20028;-84
2021/08/13 09:24:55;;;;;;;8.07;3.22;;;28.20;97.60;;;;;;5099633;28;20035;-84
2021/08/13 09:27:24;;;;;;;7.75;3.15;;;28.30;98.00;;;;;;5099151;28;20154;-84
2021/08/13 09:30:28;;;;;;;8.27;3.05;;;28.40;97.50;;;;;;5100892;28;20496;-85
2021/08/13 09:32:57;;;;;;;9.52;3.17;;;28.50;97.80;;;;;;5052892;28;20024;-83
2021/08/13 09:35:39;;;;;;;8.35;3.45;;;28.70;97.50;;;;;;5030413;28;20020;-84
2021/08/13 09:38:13;;;;;;;8.65;3.40;;;28.70;97.50;;;;;;5032163;28;20033;-85
2021/08/13 09:40:42;;;;;;;8.80;3.40;;;28.60;97.40;;;;;;5050615;28;20465;-84
2021/08/13 09:43:11;;;;;;;7.22;3.42;;;28.50;97.40;;;;;;5057368;28;20489;-81
2021/08/13 09:45:37;;;;;;;11.10;3.28;;;28.70;97.70;;;;;;5057760;28;20796;-82
2021/08/13 09:48:03;;;;;;;6.88;3.50;;;28.70;97.30;;;;;;5054698;28;20151;-81
2021/08/13 09:50:47;;;;;;;7.93;3.67;;;28.50;97.80;;;;;;5069696;28;20039;-82
2021/08/13 09:53:14;;;;;;;7.10;3.42;;;28.70;96.70;;;;;;5091493;28;20029;-85
2021/08/13 09:55:41;;;;;;;7.32;3.65;;;29.00;97.00;;;;;;5078003;28;20082;-82
2021/08/13 09:58:09;;;;;;;7.28;3.83;;;29.20;97.20;;;;;;5089279;28;20035;-82
2021/08/13 10:00:45;;;;;;;9.38;4.03;;;29.50;96.80;;;;;;5083421;28;20111;-83
2021/08/13 10:03:11;;;;;;;10.32;3.55;;;29.90;96.00;;;;;;5087245;28;20020;-81
2021/08/13 10:05:37;;;;;;;5.60;3.25;;;30.10;95.70;;;;;;5089189;28;20075;-81
2021/08/13 10:08:05;;;;;;;7.30;3.58;;;30.40;95.50;;;;;;5101998;28;20073;-80
2021/08/13 10:10:35;;;;;;;9.48;4.05;;;30.40;96.10;;;;;;5108630;28;20075;-83
2021/08/13 10:13:03;;;;;;;6.20;3.38;;;30.10;96.40;;;;;;5101843;28;20032;-81
2021/08/13 10:15:43;;;;;;;5.97;3.47;;;29.70;96.10;;;;;;5085564;28;20115;-82
2021/08/13 10:18:11;;;;;;;7.80;3.72;;;29.70;95.80;;;;;;5093635;28;20047;-83
2021/08/13 10:20:41;;;;;;;8.43;3.47;;;29.60;95.90;;;;;;5103947;28;20077;-83
2021/08/13 10:23:06;;;;;;;8.43;3.65;;;30.00;95.60;;;;;;5097985;28;20028;-81
2021/08/13 10:25:32;;;;;;;9.57;4.18;;;30.20;95.10;;;;;;5095081;28;20031;-81
2021/08/13 10:27:57;;;;;;;8.40;3.70;;;29.90;95.20;;;;;;5080022;28;20088;-82
2021/08/13 10:30:24;;;;;;;11.45;3.50;;;30.10;95.10;;;;;;5090289;28;20126;-83
2021/08/13 10:32:52;;;;;;;7.57;3.78;;;30.20;95.00;;;;;;5093594;28;20036;-82
2021/08/13 10:35:18;;;;;;;7.18;3.55;;;30.20;95.20;;;;;;5087822;28;20031;-83
2021/08/13 10:37:44;;;;;;;10.05;4.93;;;30.20;95.10;;;;;;5091636;28;20465;-81
2021/08/13 10:40:11;;;;;;;10.18;5.90;;;30.10;95.80;;;;;;5083606;28;20043;-82
2021/08/13 10:42:41;;;;;;;10.68;5.75;;;29.70;96.30;;;;;;5084984;28;20047;-81
2021/08/13 10:45:10;;;;;;;8.33;5.33;;;29.30;96.70;;;;;;5085675;28;20048;-81
2021/08/13 10:47:51;;;;;;;10.32;5.53;;;29.20;96.80;;;;;;5093499;28;20269;-80
2021/08/13 10:50:18;;;;;;;8.32;5.30;;;29.00;97.50;;;;;;5092804;28;20107;-83
2021/08/13 10:52:44;;;;;;;12.35;6.07;;;29.10;97.30;;;;;;5075131;28;20029;-81
2021/08/13 10:55:38;;;;;;;9.27;5.40;;;29.10;97.30;;;;;;5090838;28;20048;-81
2021/08/13 10:58:04;;;;;;;9.30;5.88;;;29.20;97.50;;;;;;5073823;28;20025;-80
2021/08/13 11:01:05;;;;;;;9.27;5.43;;;29.30;97.30;;;;;;5075228;28;20099;-81
2021/08/13 11:03:31;;;;;;;8.07;5.43;;;29.30;97.00;;;;;;5074638;28;20017;-81
2021/08/13 11:05:58;;;;;;;10.35;5.63;;;29.10;96.80;;;;;;5073903;28;20036;-82
2021/08/13 11:08:46;;;;;;;10.27;5.85;;;28.90;97.20;;;;;;5076213;28;20025;-83
2021/08/13 11:11:13;;;;;;;13.48;5.63;;;28.80;97.30;;;;;;5091053;28;20032;-82
2021/08/13 11:13:45;;;;;;;9.93;5.97;;;28.60;97.40;;;;;;5091100;28;20397;-81
2021/08/13 11:16:28;;;;;;;11.48;5.53;;;28.50;97.20;;;;;;5093318;28;20046;-81
2021/08/13 11:18:59;;;;;;;13.32;5.72;;;28.40;97.60;;;;;;5087053;28;20028;-81
2021/08/13 11:21:39;;;;;;;10.98;6.18;;;28.40;97.90;;;;;;5084528;28;20012;-81
2021/08/13 11:24:12;;;;;;;11.50;5.15;;;28.40;98.00;;;;;;5083777;28;20031;-83
2021/08/13 11:26:58;;;;;;;9.45;5.75;;;28.80;98.10;;;;;;5079374;28;20557;-81
2021/08/13 11:29:31;;;;;;;11.55;5.80;;;29.40;97.00;;;;;;5078258;28;20431;-81
2021/08/13 11:32:17;;;;;;;9.15;4.85;;;29.80;96.80;;;;;;5084901;28;20012;-82
2021/08/13 11:34:47;;;;;;;10.73;5.70;;;30.20;97.10;;;;;;5087028;28;20503;-82
2021/08/13 11:37:27;;;;;;;10.82;5.53;;;30.60;96.30;;;;;;5080152;28;20050;-81
2021/08/13 11:40:16;;;;;;;10.82;4.80;;;30.80;95.40;;;;;;5086582;28;20031;-82
2021/08/13 11:43:00;;;;;;;15.43;5.55;;;31.20;94.90;;;;;;5049454;28;20118;-81
2021/08/13 11:45:36;;;;;;;9.88;5.30;;;31.40;94.30;;;;;;5084644;28;20050;-82
2021/08/13 11:48:05;;;;;;;9.68;5.15;;;31.70;93.90;;;;;;5081957;28;20035;-81
2021/08/13 11:50:31;;;;;;;10.13;5.80;;;31.90;94.00;;;;;;5079864;28;20024;-82
2021/08/13 11:52:57;;;;;;;10.93;5.93;;;32.10;93.30;;;;;;5083299;28;20032;-82
2021/08/13 11:55:32;;;;;;;8.43;5.45;;;32.00;93.20;;;;;;5081641;28;20020;-82
2021/08/13 11:58:02;;;;;;;10.30;5.53;;;32.00;93.30;;;;;;5088653;28;20028;-81
2021/08/13 12:00:37;;;;;;;10.77;5.60;;;31.80;93.20;;;;;;5085133;28;20047;-81
2021/08/13 12:03:04;;;;;;;10.15;5.43;;;31.30;93.60;;;;;;5084886;28;20103;-81
2021/08/13 12:05:32;;;;;;;8.63;5.10;;;31.00;94.40;;;;;;5084159;28;20028;-81
2021/08/13 12:08:03;;;;;;;9.38;5.75;;;31.00;93.90;;;;;;5090626;28;20028;-80
2021/08/13 12:10:31;;;;;;;8.20;5.07;;;31.00;94.00;;;;;;5091605;28;20036;-81
2021/08/13 12:12:57;;;;;;;10.43;5.68;;;30.70;94.50;;;;;;5090029;28;20052;-81
2021/08/13 12:15:28;;;;;;;11.57;5.93;;;30.90;94.80;;;;;;5085704;28;20086;-81
2021/08/13 12:17:54;;;;;;;7.65;5.03;;;31.20;94.00;;;;;;5091827;28;20109;-86
2021/08/13 12:20:20;;;;;;;9.57;5.50;;;31.40;93.70;;;;;;5081075;28;20103;-87
2021/08/13 12:22:45;;;;;;;7.78;5.47;;;31.90;94.00;;;;;;5085651;28;20056;-86
2021/08/13 12:25:14;;;;;;;8.85;5.72;;;32.30;92.70;;;;;;5084745;28;20165;-86
2021/08/13 12:27:42;;;;;;;9.23;5.22;;;32.40;92.50;;;;;;5088360;28;20119;-87
2021/08/13 12:30:15;;;;;;;13.48;5.63;;;32.50;92.60;;;;;;5083697;28;20028;-86
2021/08/13 12:32:42;;;;;;;10.65;5.95;;;32.30;92.00;;;;;;5082349;28;20978;-86
2021/08/13 12:35:11;;;;;;;8.25;5.78;;;31.90;92.50;;;;;;5074179;28;20024;-87
2021/08/13 12:37:38;;;;;;;9.10;5.47;;;32.00;92.10;;;;;;5071591;28;20503;-85
2021/08/13 12:40:06;;;;;;;10.30;5.15;;;32.00;92.70;;;;;;5083786;28;20039;-85
2021/08/13 12:42:32;;;;;;;10.40;5.78;;;32.30;92.40;;;;;;5079646;28;20061;-84
2021/08/13 12:44:59;;;;;;;9.70;5.40;;;32.60;91.40;;;;;;5076979;28;20162;-84
2021/08/13 12:47:26;;;;;;;9.40;5.18;;;32.80;91.80;;;;;;5082292;28;20085;-85
2021/08/13 12:49:51;;;;;;;7.13;5.00;;;33.10;91.10;;;;;;5077356;28;20040;-85
2021/08/13 12:52:19;;;;;;;9.32;5.10;;;33.10;91.00;;;;;;5078019;28;20035;-85